sensor_id;sensor_type;location;lat;lon;timestamp;temperature;humidity
9730;DHT22;4904;49.152;11.004;2023-07-28T00:01:09;17.10;99.90
9730;DHT22;4904;49.152;11.004;2023-07-28T00:03:36;17.10;99.90
9730;DHT22;4904;49.152;11.004;2023-07-28T00:06:03;17.20;99.90
9730;DHT22;4904;49.152;11.004;2023-07-28T00:08:30;17.20;99.90
9730;DHT22;4904;49.152;11.004;2023-07-28T00:10:57;17.20;99.90
9730;DHT22;4904;49.152;11.004;2023-07-28T00:13:25;17.30;99.90
9730;DHT22;4904;49.152;11.004;2023-07-28T00:15:52;17.30;99.90
9730;DHT22;4904;49.152;11.004;2023-07-28T00:18:19;17.20;99.90
9730;DHT22;4904;49.152;11.004;2023-07-28T00:20:46;17.20;99.90
9730;DHT22;4904;49.152;11.004;2023-07-28T00:23:14;17.20;99.90
9730;DHT22;4904;49.152;11.004;2023-07-28T00:25:41;17.20;99.90
9730;DHT22;4904;49.152;11.004;2023-07-28T00:28:08;17.20;99.90
9730;DHT22;4904;49.152;11.004;2023-07-28T00:30:36;17.20;99.90
9730;DHT22;4904;49.152;11.004;2023-07-28T00:33:03;17.20;99.90
9730;DHT22;4904;49.152;11.004;2023-07-28T00:35:30;17.20;99.90
9730;DHT22;4904;49.152;11.004;2023-07-28T00:37:57;17.20;99.90
9730;DHT22;4904;49.152;11.004;2023-07-28T00:40:24;17.10;99.90
9730;DHT22;4904;49.152;11.004;2023-07-28T00:42:50;17.00;99.90
9730;DHT22;4904;49.152;11.004;2023-07-28T00:45:17;16.90;99.90
9730;DHT22;4904;49.152;11.004;2023-07-28T00:47:46;16.90;99.90
9730;DHT22;4904;49.152;11.004;2023-07-28T00:50:13;16.90;99.90
9730;DHT22;4904;49.152;11.004;2023-07-28T00:52:40;16.80;99.90
9730;DHT22;4904;49.152;11.004;2023-07-28T00:55:08;16.90;99.90
9730;DHT22;4904;49.152;11.004;2023-07-28T00:57:35;16.90;99.90
9730;DHT22;4904;49.152;11.004;2023-07-28T01:00:06;16.90;99.90
9730;DHT22;4904;49.152;11.004;2023-07-28T01:02:33;16.80;99.90
9730;DHT22;4904;49.152;11.004;2023-07-28T01:05:01;16.80;99.90
9730;DHT22;4904;49.152;11.004;2023-07-28T01:07:36;16.70;99.90
9730;DHT22;4904;49.152;11.004;2023-07-28T01:10:08;16.80;99.90
9730;DHT22;4904;49.152;11.004;2023-07-28T01:12:35;16.70;99.90
9730;DHT22;4904;49.152;11.004;2023-07-28T01:15:02;16.70;99.90
9730;DHT22;4904;49.152;11.004;2023-07-28T01:17:29;16.70;99.90
9730;DHT22;4904;49.152;11.004;2023-07-28T01:19:56;16.70;99.90
9730;DHT22;4904;49.152;11.004;2023-07-28T01:22:52;16.70;99.90
9730;DHT22;4904;49.152;11.004;2023-07-28T01:25:32;16.70;99.90
9730;DHT22;4904;49.152;11.004;2023-07-28T01:28:04;16.80;99.90
9730;DHT22;4904;49.152;11.004;2023-07-28T01:30:32;16.70;99.90
9730;DHT22;4904;49.152;11.004;2023-07-28T01:32:59;16.70;99.90
9730;DHT22;4904;49.152;11.004;2023-07-28T01:35:26;16.70;99.90
9730;DHT22;4904;49.152;11.004;2023-07-28T01:37:53;16.70;99.90
9730;DHT22;4904;49.152;11.004;2023-07-28T01:40:20;16.80;99.90
9730;DHT22;4904;49.152;11.004;2023-07-28T01:42:47;16.70;99.90
9730;DHT22;4904;49.152;11.004;2023-07-28T01:45:16;16.80;99.90
9730;DHT22;4904;49.152;11.004;2023-07-28T01:47:43;16.80;99.90
9730;DHT22;4904;49.152;11.004;2023-07-28T01:50:10;16.90;99.90
9730;DHT22;4904;49.152;11.004;2023-07-28T01:52:37;16.90;99.90
9730;DHT22;4904;49.152;11.004;2023-07-28T01:55:04;16.80;99.90
9730;DHT22;4904;49.152;11.004;2023-07-28T01:57:33;16.90;99.90
9730;DHT22;4904;49.152;11.004;2023-07-28T02:00:01;16.90;99.90
9730;DHT22;4904;49.152;11.004;2023-07-28T02:02:31;17.00;99.90
9730;DHT22;4904;49.152;11.004;2023-07-28T02:04:59;17.00;99.90
9730;DHT22;4904;49.152;11.004;2023-07-28T02:07:26;17.00;99.90
9730;DHT22;4904;49.152;11.004;2023-07-28T02:09:53;17.00;99.90
9730;DHT22;4904;49.152;11.004;2023-07-28T02:12:20;17.00;99.90
9730;DHT22;4904;49.152;11.004;2023-07-28T02:14:47;17.00;99.90
9730;DHT22;4904;49.152;11.004;2023-07-28T02:17:14;17.00;99.90
9730;DHT22;4904;49.152;11.004;2023-07-28T02:19:43;17.00;99.90
9730;DHT22;4904;49.152;11.004;2023-07-28T02:22:09;17.10;99.90
9730;DHT22;4904;49.152;11.004;2023-07-28T02:24:37;17.10;99.90
9730;DHT22;4904;49.152;11.004;2023-07-28T02:27:04;17.10;99.90
9730;DHT22;4904;49.152;11.004;2023-07-28T02:29:31;17.10;99.90
9730;DHT22;4904;49.152;11.004;2023-07-28T02:31:58;17.10;99.90
9730;DHT22;4904;49.152;11.004;2023-07-28T02:34:25;17.10;99.90
9730;DHT22;4904;49.152;11.004;2023-07-28T02:36:53;17.10;99.90
9730;DHT22;4904;49.152;11.004;2023-07-28T02:39:20;17.00;99.90
9730;DHT22;4904;49.152;11.004;2023-07-28T02:41:47;17.10;99.90
9730;DHT22;4904;49.152;11.004;2023-07-28T02:44:13;17.10;99.90
9730;DHT22;4904;49.152;11.004;2023-07-28T02:46:40;17.20;99.90
9730;DHT22;4904;49.152;11.004;2023-07-28T02:49:07;17.10;99.90
9730;DHT22;4904;49.152;11.004;2023-07-28T02:51:34;16.90;99.90
9730;DHT22;4904;49.152;11.004;2023-07-28T02:54:02;16.80;99.90
9730;DHT22;4904;49.152;11.004;2023-07-28T02:56:30;16.70;99.90
9730;DHT22;4904;49.152;11.004;2023-07-28T02:59:00;16.80;99.90
9730;DHT22;4904;49.152;11.004;2023-07-28T03:01:29;16.80;99.90
9730;DHT22;4904;49.152;11.004;2023-07-28T03:03:58;16.70;99.90
9730;DHT22;4904;49.152;11.004;2023-07-28T03:06:25;16.70;99.90
9730;DHT22;4904;49.152;11.004;2023-07-28T03:08:52;16.70;99.90
9730;DHT22;4904;49.152;11.004;2023-07-28T03:11:21;16.70;99.90
9730;DHT22;4904;49.152;11.004;2023-07-28T03:13:47;16.70;99.90
9730;DHT22;4904;49.152;11.004;2023-07-28T03:16:14;16.60;99.90
9730;DHT22;4904;49.152;11.004;2023-07-28T03:18:42;16.60;99.90
9730;DHT22;4904;49.152;11.004;2023-07-28T03:21:09;16.50;99.90
9730;DHT22;4904;49.152;11.004;2023-07-28T03:23:36;16.40;99.90
9730;DHT22;4904;49.152;11.004;2023-07-28T03:26:03;16.40;99.90
9730;DHT22;4904;49.152;11.004;2023-07-28T03:28:31;16.40;99.90
9730;DHT22;4904;49.152;11.004;2023-07-28T03:30:58;16.40;99.90
9730;DHT22;4904;49.152;11.004;2023-07-28T03:33:24;16.30;99.90
9730;DHT22;4904;49.152;11.004;2023-07-28T03:35:51;16.40;99.90
9730;DHT22;4904;49.152;11.004;2023-07-28T03:38:19;16.40;99.90
9730;DHT22;4904;49.152;11.004;2023-07-28T03:40:45;16.40;99.90
9730;DHT22;4904;49.152;11.004;2023-07-28T03:43:13;16.40;99.90
9730;DHT22;4904;49.152;11.004;2023-07-28T03:45:41;16.50;99.90
9730;DHT22;4904;49.152;11.004;2023-07-28T03:48:08;16.60;99.90
9730;DHT22;4904;49.152;11.004;2023-07-28T03:50:35;16.60;99.90
9730;DHT22;4904;49.152;11.004;2023-07-28T03:53:01;16.60;99.90
9730;DHT22;4904;49.152;11.004;2023-07-28T03:55:28;16.60;99.90
9730;DHT22;4904;49.152;11.004;2023-07-28T03:57:55;16.60;99.90
9730;DHT22;4904;49.152;11.004;2023-07-28T04:00:22;16.60;99.90
9730;DHT22;4904;49.152;11.004;2023-07-28T04:02:54;16.70;99.90
9730;DHT22;4904;49.152;11.004;2023-07-28T04:05:21;16.80;99.90
9730;DHT22;4904;49.152;11.004;2023-07-28T04:07:49;16.70;99.90
9730;DHT22;4904;49.152;11.004;2023-07-28T04:10:16;16.70;99.90
9730;DHT22;4904;49.152;11.004;2023-07-28T04:12:45;16.70;99.90
9730;DHT22;4904;49.152;11.004;2023-07-28T04:15:12;16.70;99.90
9730;DHT22;4904;49.152;11.004;2023-07-28T04:17:39;16.70;99.90
9730;DHT22;4904;49.152;11.004;2023-07-28T04:20:08;16.70;99.90
9730;DHT22;4904;49.152;11.004;2023-07-28T04:22:35;16.70;99.90
9730;DHT22;4904;49.152;11.004;2023-07-28T04:25:02;16.70;99.90
9730;DHT22;4904;49.152;11.004;2023-07-28T04:27:29;16.80;99.90
9730;DHT22;4904;49.152;11.004;2023-07-28T04:29:56;16.70;99.90
9730;DHT22;4904;49.152;11.004;2023-07-28T04:32:24;16.70;99.90
9730;DHT22;4904;49.152;11.004;2023-07-28T04:34:51;16.70;99.90
9730;DHT22;4904;49.152;11.004;2023-07-28T04:37:20;16.80;99.90
9730;DHT22;4904;49.152;11.004;2023-07-28T04:39:47;16.80;99.90
9730;DHT22;4904;49.152;11.004;2023-07-28T04:42:14;16.80;99.90
9730;DHT22;4904;49.152;11.004;2023-07-28T04:44:41;16.80;99.90
9730;DHT22;4904;49.152;11.004;2023-07-28T04:47:08;16.80;99.90
9730;DHT22;4904;49.152;11.004;2023-07-28T04:49:35;16.80;99.90
9730;DHT22;4904;49.152;11.004;2023-07-28T04:52:02;16.80;99.90
9730;DHT22;4904;49.152;11.004;2023-07-28T04:54:30;16.80;99.90
9730;DHT22;4904;49.152;11.004;2023-07-28T04:56:57;16.80;99.90
9730;DHT22;4904;49.152;11.004;2023-07-28T04:59:24;16.80;99.90
9730;DHT22;4904;49.152;11.004;2023-07-28T05:01:51;16.80;99.90
9730;DHT22;4904;49.152;11.004;2023-07-28T05:04:18;16.80;99.90
9730;DHT22;4904;49.152;11.004;2023-07-28T05:06:45;16.80;99.90
9730;DHT22;4904;49.152;11.004;2023-07-28T05:09:12;16.80;99.90
9730;DHT22;4904;49.152;11.004;2023-07-28T05:11:40;16.90;99.90
9730;DHT22;4904;49.152;11.004;2023-07-28T05:14:07;16.80;99.90
9730;DHT22;4904;49.152;11.004;2023-07-28T05:16:35;16.80;99.90
9730;DHT22;4904;49.152;11.004;2023-07-28T05:19:03;16.80;99.90
9730;DHT22;4904;49.152;11.004;2023-07-28T05:21:30;16.80;99.90
9730;DHT22;4904;49.152;11.004;2023-07-28T05:23:57;16.80;99.90
9730;DHT22;4904;49.152;11.004;2023-07-28T05:26:23;16.80;99.90
9730;DHT22;4904;49.152;11.004;2023-07-28T05:28:52;16.80;99.90
9730;DHT22;4904;49.152;11.004;2023-07-28T05:31:18;16.80;99.90
9730;DHT22;4904;49.152;11.004;2023-07-28T05:33:45;16.80;99.90
9730;DHT22;4904;49.152;11.004;2023-07-28T05:36:12;16.80;99.90
9730;DHT22;4904;49.152;11.004;2023-07-28T05:38:39;16.90;99.90
9730;DHT22;4904;49.152;11.004;2023-07-28T05:41:06;16.90;99.90
9730;DHT22;4904;49.152;11.004;2023-07-28T05:43:33;16.90;99.90
9730;DHT22;4904;49.152;11.004;2023-07-28T05:46:02;16.90;99.90
9730;DHT22;4904;49.152;11.004;2023-07-28T05:48:28;17.00;99.90
9730;DHT22;4904;49.152;11.004;2023-07-28T05:50:55;17.00;99.90
9730;DHT22;4904;49.152;11.004;2023-07-28T05:53:22;17.10;99.90
9730;DHT22;4904;49.152;11.004;2023-07-28T05:55:49;17.00;99.90
9730;DHT22;4904;49.152;11.004;2023-07-28T05:58:16;17.00;99.90
9730;DHT22;4904;49.152;11.004;2023-07-28T06:00:44;17.00;99.90
9730;DHT22;4904;49.152;11.004;2023-07-28T06:03:12;17.00;99.90
9730;DHT22;4904;49.152;11.004;2023-07-28T06:05:39;16.90;99.90
9730;DHT22;4904;49.152;11.004;2023-07-28T06:08:07;16.90;99.90
9730;DHT22;4904;49.152;11.004;2023-07-28T06:10:34;16.80;99.90
9730;DHT22;4904;49.152;11.004;2023-07-28T06:13:01;16.90;99.90
9730;DHT22;4904;49.152;11.004;2023-07-28T06:15:28;16.80;99.90
9730;DHT22;4904;49.152;11.004;2023-07-28T06:17:55;16.70;99.90
9730;DHT22;4904;49.152;11.004;2023-07-28T06:20:23;16.80;99.90
9730;DHT22;4904;49.152;11.004;2023-07-28T06:22:50;16.70;99.90
9730;DHT22;4904;49.152;11.004;2023-07-28T06:25:17;16.80;99.90
9730;DHT22;4904;49.152;11.004;2023-07-28T06:27:44;16.80;99.90
9730;DHT22;4904;49.152;11.004;2023-07-28T06:30:11;16.80;99.90
9730;DHT22;4904;49.152;11.004;2023-07-28T06:32:38;16.80;99.90
9730;DHT22;4904;49.152;11.004;2023-07-28T06:35:06;16.70;99.90
9730;DHT22;4904;49.152;11.004;2023-07-28T06:37:36;16.80;99.90
9730;DHT22;4904;49.152;11.004;2023-07-28T06:40:04;16.70;99.90
9730;DHT22;4904;49.152;11.004;2023-07-28T06:42:33;16.70;99.90
9730;DHT22;4904;49.152;11.004;2023-07-28T06:45:00;16.70;99.90
9730;DHT22;4904;49.152;11.004;2023-07-28T06:47:28;16.60;99.90
9730;DHT22;4904;49.152;11.004;2023-07-28T06:49:55;16.70;99.90
9730;DHT22;4904;49.152;11.004;2023-07-28T06:52:22;16.70;99.90
9730;DHT22;4904;49.152;11.004;2023-07-28T06:54:51;16.70;99.90
9730;DHT22;4904;49.152;11.004;2023-07-28T06:57:19;16.70;99.90
9730;DHT22;4904;49.152;11.004;2023-07-28T06:59:46;16.70;99.90
9730;DHT22;4904;49.152;11.004;2023-07-28T07:02:13;16.70;99.90
9730;DHT22;4904;49.152;11.004;2023-07-28T07:04:41;16.80;99.90
9730;DHT22;4904;49.152;11.004;2023-07-28T07:07:08;16.80;99.90
9730;DHT22;4904;49.152;11.004;2023-07-28T07:09:35;16.80;99.90
9730;DHT22;4904;49.152;11.004;2023-07-28T07:12:05;16.80;99.90
9730;DHT22;4904;49.152;11.004;2023-07-28T07:14:33;16.80;99.90
9730;DHT22;4904;49.152;11.004;2023-07-28T07:17:00;16.90;99.90
9730;DHT22;4904;49.152;11.004;2023-07-28T07:19:27;16.90;99.90
9730;DHT22;4904;49.152;11.004;2023-07-28T07:21:54;17.00;99.90
9730;DHT22;4904;49.152;11.004;2023-07-28T07:24:21;17.00;99.90
9730;DHT22;4904;49.152;11.004;2023-07-28T07:26:49;17.10;99.90
9730;DHT22;4904;49.152;11.004;2023-07-28T07:29:18;17.10;99.90
9730;DHT22;4904;49.152;11.004;2023-07-28T07:31:44;17.10;99.90
9730;DHT22;4904;49.152;11.004;2023-07-28T07:34:13;17.30;99.90
9730;DHT22;4904;49.152;11.004;2023-07-28T07:36:40;17.40;99.90
9730;DHT22;4904;49.152;11.004;2023-07-28T07:39:06;17.50;99.90
9730;DHT22;4904;49.152;11.004;2023-07-28T07:41:34;17.60;99.90
9730;DHT22;4904;49.152;11.004;2023-07-28T07:44:01;17.60;99.90
9730;DHT22;4904;49.152;11.004;2023-07-28T07:46:30;17.70;99.90
9730;DHT22;4904;49.152;11.004;2023-07-28T07:48:57;17.70;99.90
9730;DHT22;4904;49.152;11.004;2023-07-28T07:51:24;17.70;99.90
9730;DHT22;4904;49.152;11.004;2023-07-28T07:53:51;17.70;99.90
9730;DHT22;4904;49.152;11.004;2023-07-28T07:56:18;17.70;99.90
9730;DHT22;4904;49.152;11.004;2023-07-28T07:58:45;17.70;99.90
9730;DHT22;4904;49.152;11.004;2023-07-28T08:01:12;17.70;99.90
9730;DHT22;4904;49.152;11.004;2023-07-28T08:03:40;17.70;99.90
9730;DHT22;4904;49.152;11.004;2023-07-28T08:06:07;17.80;99.90
9730;DHT22;4904;49.152;11.004;2023-07-28T08:08:37;17.80;99.90
9730;DHT22;4904;49.152;11.004;2023-07-28T08:11:03;17.90;99.90
9730;DHT22;4904;49.152;11.004;2023-07-28T08:13:30;17.90;99.90
9730;DHT22;4904;49.152;11.004;2023-07-28T08:15:57;17.90;99.90
9730;DHT22;4904;49.152;11.004;2023-07-28T08:18:25;18.00;99.90
9730;DHT22;4904;49.152;11.004;2023-07-28T08:20:53;17.90;99.90
9730;DHT22;4904;49.152;11.004;2023-07-28T08:23:20;18.00;99.90
9730;DHT22;4904;49.152;11.004;2023-07-28T08:25:47;18.00;99.90
9730;DHT22;4904;49.152;11.004;2023-07-28T08:28:14;18.00;99.90
9730;DHT22;4904;49.152;11.004;2023-07-28T08:30:40;18.10;99.90
9730;DHT22;4904;49.152;11.004;2023-07-28T08:33:07;18.10;99.90
9730;DHT22;4904;49.152;11.004;2023-07-28T08:35:34;18.20;99.90
9730;DHT22;4904;49.152;11.004;2023-07-28T08:38:02;18.20;99.90
9730;DHT22;4904;49.152;11.004;2023-07-28T08:40:30;18.20;99.90
9730;DHT22;4904;49.152;11.004;2023-07-28T08:42:56;18.20;99.90
9730;DHT22;4904;49.152;11.004;2023-07-28T08:45:23;18.20;99.90
9730;DHT22;4904;49.152;11.004;2023-07-28T08:47:51;18.30;99.90
9730;DHT22;4904;49.152;11.004;2023-07-28T08:50:18;18.10;99.90
9730;DHT22;4904;49.152;11.004;2023-07-28T08:52:45;18.10;99.90
9730;DHT22;4904;49.152;11.004;2023-07-28T08:55:14;18.10;99.90
9730;DHT22;4904;49.152;11.004;2023-07-28T08:57:41;17.90;99.90
9730;DHT22;4904;49.152;11.004;2023-07-28T09:00:10;17.90;99.90
9730;DHT22;4904;49.152;11.004;2023-07-28T09:02:40;17.80;99.90
9730;DHT22;4904;49.152;11.004;2023-07-28T09:05:18;17.80;99.90
9730;DHT22;4904;49.152;11.004;2023-07-28T09:07:46;17.90;99.90
9730;DHT22;4904;49.152;11.004;2023-07-28T09:10:17;17.90;99.90
9730;DHT22;4904;49.152;11.004;2023-07-28T09:12:46;18.00;99.90
9730;DHT22;4904;49.152;11.004;2023-07-28T09:15:14;18.10;99.90
9730;DHT22;4904;49.152;11.004;2023-07-28T09:17:42;18.10;99.90
9730;DHT22;4904;49.152;11.004;2023-07-28T09:20:13;18.30;99.90
9730;DHT22;4904;49.152;11.004;2023-07-28T09:22:40;18.30;99.90
9730;DHT22;4904;49.152;11.004;2023-07-28T09:25:12;18.30;99.90
9730;DHT22;4904;49.152;11.004;2023-07-28T09:27:43;18.40;99.90
9730;DHT22;4904;49.152;11.004;2023-07-28T09:30:16;18.40;99.90
9730;DHT22;4904;49.152;11.004;2023-07-28T09:32:47;18.40;99.90
9730;DHT22;4904;49.152;11.004;2023-07-28T09:35:15;18.40;99.90
9730;DHT22;4904;49.152;11.004;2023-07-28T09:37:44;18.50;99.90
9730;DHT22;4904;49.152;11.004;2023-07-28T09:40:13;18.50;99.90
9730;DHT22;4904;49.152;11.004;2023-07-28T09:42:44;18.50;99.90
9730;DHT22;4904;49.152;11.004;2023-07-28T09:45:15;18.60;99.90
9730;DHT22;4904;49.152;11.004;2023-07-28T09:47:44;18.70;99.90
9730;DHT22;4904;49.152;11.004;2023-07-28T09:50:14;18.70;99.90
9730;DHT22;4904;49.152;11.004;2023-07-28T09:52:43;18.70;99.90
9730;DHT22;4904;49.152;11.004;2023-07-28T09:55:11;18.70;99.90
9730;DHT22;4904;49.152;11.004;2023-07-28T09:57:43;18.70;99.90
9730;DHT22;4904;49.152;11.004;2023-07-28T10:00:13;18.80;99.90
9730;DHT22;4904;49.152;11.004;2023-07-28T10:02:40;18.80;99.90
9730;DHT22;4904;49.152;11.004;2023-07-28T10:05:07;18.90;99.90
9730;DHT22;4904;49.152;11.004;2023-07-28T10:07:37;18.90;99.90
9730;DHT22;4904;49.152;11.004;2023-07-28T10:10:06;18.90;99.90
9730;DHT22;4904;49.152;11.004;2023-07-28T10:12:40;19.00;99.90
9730;DHT22;4904;49.152;11.004;2023-07-28T10:15:12;18.80;99.90
9730;DHT22;4904;49.152;11.004;2023-07-28T10:17:43;18.80;99.90
9730;DHT22;4904;49.152;11.004;2023-07-28T10:20:29;18.80;99.90
9730;DHT22;4904;49.152;11.004;2023-07-28T10:23:07;18.90;99.90
9730;DHT22;4904;49.152;11.004;2023-07-28T10:25:38;18.90;99.90
9730;DHT22;4904;49.152;11.004;2023-07-28T10:28:07;18.90;99.90
9730;DHT22;4904;49.152;11.004;2023-07-28T10:30:37;18.80;99.90
9730;DHT22;4904;49.152;11.004;2023-07-28T10:33:05;18.70;99.90
9730;DHT22;4904;49.152;11.004;2023-07-28T10:35:33;18.70;99.90
9730;DHT22;4904;49.152;11.004;2023-07-28T10:38:27;18.70;99.90
9730;DHT22;4904;49.152;11.004;2023-07-28T10:41:08;18.70;99.90
9730;DHT22;4904;49.152;11.004;2023-07-28T10:43:36;19.00;99.90
9730;DHT22;4904;49.152;11.004;2023-07-28T10:46:06;19.00;99.90
9730;DHT22;4904;49.152;11.004;2023-07-28T10:48:35;19.20;99.90
9730;DHT22;4904;49.152;11.004;2023-07-28T10:51:02;19.30;99.90
9730;DHT22;4904;49.152;11.004;2023-07-28T10:53:31;19.30;99.90
9730;DHT22;4904;49.152;11.004;2023-07-28T10:55:59;19.40;99.90
9730;DHT22;4904;49.152;11.004;2023-07-28T10:58:27;19.30;99.90
9730;DHT22;4904;49.152;11.004;2023-07-28T11:00:55;19.40;99.90
9730;DHT22;4904;49.152;11.004;2023-07-28T11:03:24;19.50;99.90
9730;DHT22;4904;49.152;11.004;2023-07-28T11:05:51;19.50;99.90
9730;DHT22;4904;49.152;11.004;2023-07-28T11:08:22;19.70;99.90
9730;DHT22;4904;49.152;11.004;2023-07-28T11:10:49;19.80;99.90
9730;DHT22;4904;49.152;11.004;2023-07-28T11:13:16;20.10;99.90
9730;DHT22;4904;49.152;11.004;2023-07-28T11:15:44;20.20;99.90
9730;DHT22;4904;49.152;11.004;2023-07-28T11:18:11;20.40;99.90
9730;DHT22;4904;49.152;11.004;2023-07-28T11:20:43;20.40;99.90
9730;DHT22;4904;49.152;11.004;2023-07-28T11:23:14;20.40;99.90
9730;DHT22;4904;49.152;11.004;2023-07-28T11:25:42;20.40;99.90
9730;DHT22;4904;49.152;11.004;2023-07-28T11:28:11;20.50;99.90
9730;DHT22;4904;49.152;11.004;2023-07-28T11:30:38;20.50;99.90
9730;DHT22;4904;49.152;11.004;2023-07-28T11:33:09;20.50;99.90
9730;DHT22;4904;49.152;11.004;2023-07-28T11:35:38;20.40;99.90
9730;DHT22;4904;49.152;11.004;2023-07-28T11:38:07;20.40;99.90
9730;DHT22;4904;49.152;11.004;2023-07-28T11:40:35;20.50;99.90
9730;DHT22;4904;49.152;11.004;2023-07-28T11:43:03;20.70;99.90
9730;DHT22;4904;49.152;11.004;2023-07-28T11:45:30;20.60;99.90
9730;DHT22;4904;49.152;11.004;2023-07-28T11:47:59;20.90;99.90
9730;DHT22;4904;49.152;11.004;2023-07-28T11:50:28;21.00;99.90
9730;DHT22;4904;49.152;11.004;2023-07-28T11:52:56;21.00;99.90
9730;DHT22;4904;49.152;11.004;2023-07-28T11:55:25;20.90;99.90
9730;DHT22;4904;49.152;11.004;2023-07-28T11:57:53;20.80;99.90
9730;DHT22;4904;49.152;11.004;2023-07-28T12:00:28;20.70;99.90
9730;DHT22;4904;49.152;11.004;2023-07-28T12:03:03;20.80;99.90
9730;DHT22;4904;49.152;11.004;2023-07-28T12:05:31;20.80;99.90
9730;DHT22;4904;49.152;11.004;2023-07-28T12:08:01;20.90;99.90
9730;DHT22;4904;49.152;11.004;2023-07-28T12:10:30;21.00;99.90
9730;DHT22;4904;49.152;11.004;2023-07-28T12:13:03;21.10;99.90
9730;DHT22;4904;49.152;11.004;2023-07-28T12:15:31;21.00;99.90
9730;DHT22;4904;49.152;11.004;2023-07-28T12:18:05;20.80;99.90
9730;DHT22;4904;49.152;11.004;2023-07-28T12:20:37;20.60;99.90
9730;DHT22;4904;49.152;11.004;2023-07-28T12:23:05;20.40;99.90
9730;DHT22;4904;49.152;11.004;2023-07-28T12:25:33;20.20;99.90
9730;DHT22;4904;49.152;11.004;2023-07-28T12:28:02;20.10;99.90
9730;DHT22;4904;49.152;11.004;2023-07-28T12:30:29;20.20;99.90
9730;DHT22;4904;49.152;11.004;2023-07-28T12:32:57;20.20;99.90
9730;DHT22;4904;49.152;11.004;2023-07-28T12:35:26;20.30;99.90
9730;DHT22;4904;49.152;11.004;2023-07-28T12:37:57;20.30;99.90
9730;DHT22;4904;49.152;11.004;2023-07-28T12:40:26;20.50;99.90
9730;DHT22;4904;49.152;11.004;2023-07-28T12:42:54;20.60;99.90
9730;DHT22;4904;49.152;11.004;2023-07-28T12:45:22;20.80;99.90
9730;DHT22;4904;49.152;11.004;2023-07-28T12:47:51;20.90;99.90
9730;DHT22;4904;49.152;11.004;2023-07-28T12:50:19;21.10;99.90
9730;DHT22;4904;49.152;11.004;2023-07-28T12:52:46;21.30;99.90
9730;DHT22;4904;49.152;11.004;2023-07-28T12:55:13;21.50;99.90
9730;DHT22;4904;49.152;11.004;2023-07-28T12:57:40;21.80;99.90
9730;DHT22;4904;49.152;11.004;2023-07-28T13:00:10;21.60;99.90
9730;DHT22;4904;49.152;11.004;2023-07-28T13:02:40;21.70;99.90
9730;DHT22;4904;49.152;11.004;2023-07-28T13:05:08;21.90;99.90
9730;DHT22;4904;49.152;11.004;2023-07-28T13:07:36;22.20;99.90
9730;DHT22;4904;49.152;11.004;2023-07-28T13:10:03;22.50;99.90
9730;DHT22;4904;49.152;11.004;2023-07-28T13:12:31;22.50;99.90
9730;DHT22;4904;49.152;11.004;2023-07-28T13:14:58;22.50;99.90
9730;DHT22;4904;49.152;11.004;2023-07-28T13:17:27;22.50;99.90
9730;DHT22;4904;49.152;11.004;2023-07-28T13:19:54;22.60;99.90
9730;DHT22;4904;49.152;11.004;2023-07-28T13:22:22;22.50;99.90
9730;DHT22;4904;49.152;11.004;2023-07-28T13:24:49;22.40;99.90
9730;DHT22;4904;49.152;11.004;2023-07-28T13:27:17;22.40;99.90
9730;DHT22;4904;49.152;11.004;2023-07-28T13:29:44;22.20;99.90
9730;DHT22;4904;49.152;11.004;2023-07-28T13:32:18;22.20;99.90
9730;DHT22;4904;49.152;11.004;2023-07-28T13:34:46;22.20;99.90
9730;DHT22;4904;49.152;11.004;2023-07-28T13:37:14;22.00;99.90
9730;DHT22;4904;49.152;11.004;2023-07-28T13:39:42;22.00;99.90
9730;DHT22;4904;49.152;11.004;2023-07-28T13:42:09;22.00;99.90
9730;DHT22;4904;49.152;11.004;2023-07-28T13:44:37;22.00;99.90
9730;DHT22;4904;49.152;11.004;2023-07-28T13:47:04;22.00;99.90
9730;DHT22;4904;49.152;11.004;2023-07-28T13:49:34;21.90;99.90
9730;DHT22;4904;49.152;11.004;2023-07-28T13:52:05;22.00;99.90
9730;DHT22;4904;49.152;11.004;2023-07-28T13:54:33;22.00;99.90
9730;DHT22;4904;49.152;11.004;2023-07-28T13:57:00;21.80;99.90
9730;DHT22;4904;49.152;11.004;2023-07-28T13:59:27;21.90;99.90
9730;DHT22;4904;49.152;11.004;2023-07-28T14:01:54;21.90;99.90
9730;DHT22;4904;49.152;11.004;2023-07-28T14:04:23;21.90;99.90
9730;DHT22;4904;49.152;11.004;2023-07-28T14:06:50;21.80;99.90
9730;DHT22;4904;49.152;11.004;2023-07-28T14:09:19;21.90;99.90
9730;DHT22;4904;49.152;11.004;2023-07-28T14:11:46;21.80;99.90
9730;DHT22;4904;49.152;11.004;2023-07-28T14:14:13;21.80;99.90
9730;DHT22;4904;49.152;11.004;2023-07-28T14:16:40;21.90;99.90
9730;DHT22;4904;49.152;11.004;2023-07-28T14:19:08;21.90;99.90
9730;DHT22;4904;49.152;11.004;2023-07-28T14:21:35;22.00;99.90
9730;DHT22;4904;49.152;11.004;2023-07-28T14:24:04;22.10;99.90
9730;DHT22;4904;49.152;11.004;2023-07-28T14:26:32;22.00;99.90
9730;DHT22;4904;49.152;11.004;2023-07-28T14:29:00;22.00;99.90
9730;DHT22;4904;49.152;11.004;2023-07-28T14:31:27;22.10;99.90
9730;DHT22;4904;49.152;11.004;2023-07-28T14:33:54;22.10;99.90
9730;DHT22;4904;49.152;11.004;2023-07-28T14:36:21;22.00;99.90
9730;DHT22;4904;49.152;11.004;2023-07-28T14:38:48;22.00;99.90
9730;DHT22;4904;49.152;11.004;2023-07-28T14:41:15;22.00;99.90
9730;DHT22;4904;49.152;11.004;2023-07-28T14:43:43;22.00;99.90
9730;DHT22;4904;49.152;11.004;2023-07-28T14:46:11;21.90;99.90
9730;DHT22;4904;49.152;11.004;2023-07-28T14:48:38;22.00;99.90
9730;DHT22;4904;49.152;11.004;2023-07-28T14:51:05;22.00;99.90
9730;DHT22;4904;49.152;11.004;2023-07-28T14:53:34;22.00;99.90
9730;DHT22;4904;49.152;11.004;2023-07-28T14:56:03;21.90;99.90
9730;DHT22;4904;49.152;11.004;2023-07-28T14:58:30;21.90;99.90
9730;DHT22;4904;49.152;11.004;2023-07-28T15:00:59;21.80;99.90
9730;DHT22;4904;49.152;11.004;2023-07-28T15:03:28;21.70;99.90
9730;DHT22;4904;49.152;11.004;2023-07-28T15:05:56;21.60;99.90
9730;DHT22;4904;49.152;11.004;2023-07-28T15:08:23;21.40;99.90
9730;DHT22;4904;49.152;11.004;2023-07-28T15:10:51;21.10;99.90
9730;DHT22;4904;49.152;11.004;2023-07-28T15:13:18;21.00;99.90
9730;DHT22;4904;49.152;11.004;2023-07-28T15:15:46;20.90;99.90
9730;DHT22;4904;49.152;11.004;2023-07-28T15:18:14;20.80;99.90
9730;DHT22;4904;49.152;11.004;2023-07-28T15:20:41;20.70;99.90
9730;DHT22;4904;49.152;11.004;2023-07-28T15:23:09;20.60;99.90
9730;DHT22;4904;49.152;11.004;2023-07-28T15:25:36;20.50;99.90
9730;DHT22;4904;49.152;11.004;2023-07-28T15:28:08;20.30;99.90
9730;DHT22;4904;49.152;11.004;2023-07-28T15:30:36;20.30;99.90
9730;DHT22;4904;49.152;11.004;2023-07-28T15:33:03;20.30;99.90
9730;DHT22;4904;49.152;11.004;2023-07-28T15:35:31;20.10;99.90
9730;DHT22;4904;49.152;11.004;2023-07-28T15:37:58;20.00;99.90
9730;DHT22;4904;49.152;11.004;2023-07-28T15:40:25;20.10;99.90
9730;DHT22;4904;49.152;11.004;2023-07-28T15:42:52;20.10;99.90
9730;DHT22;4904;49.152;11.004;2023-07-28T15:45:20;20.10;99.90
9730;DHT22;4904;49.152;11.004;2023-07-28T15:47:47;20.10;99.90
9730;DHT22;4904;49.152;11.004;2023-07-28T15:50:14;20.10;99.90